This is the latest recevied weather packets stored in our database for station/object KE4EST. If no packets are shown the sender has not sent any weather packets the latest 1 day(s).
| Time | Temp. | Humidity | Pressure | Rain* | Wind** | Luminosity | Snow |
|---|---|---|---|---|---|---|---|
| 1778026710 | 18.33° C | 59% | 1014.2 hPa | 0 mm | 0 m/s | 2 W/m² | - |
| 1778026407 | 17.78° C | 60% | 1014.1 hPa | 0 mm | 0 m/s | 2 W/m² | - |
| 1778026104 | 18.33° C | 59% | 1013.7 hPa | 0 mm | 0 m/s | 3 W/m² | - |
| 1778025802 | 18.33° C | 62% | 1013.8 hPa | 0 mm | 0 m/s | 6 W/m² | - |
| 1778025499 | 18.33° C | 61% | 1013.7 hPa | 0 mm | 0 m/s | 6 W/m² | - |
| 1778025196 | 18.89° C | 58% | 1013.9 hPa | 0 mm | 0 m/s | 4 W/m² | - |
| 1778024893 | 19.44° C | 56% | 1013.5 hPa | 0 mm | 0 m/s | 4 W/m² | - |
| 1778024591 | 20° C | 50% | 1013.6 hPa | 0 mm | 0 m/s | 4 W/m² | - |
| 1778024288 | 20° C | 49% | 1013.8 hPa | 0 mm | 0 m/s | 8 W/m² | - |
| 1778023985 | 20° C | 51% | 1013.7 hPa | 0 mm | 0 m/s | 11 W/m² | - |
| 1778023682 | 20° C | 49% | 1013.5 hPa | 0 mm | 0 m/s | 10 W/m² | - |
| 1778023380 | 20.56° C | 47% | 1013.8 hPa | 0 mm | 0 m/s | 12 W/m² | - |
| 1778023076 | 20.56° C | 46% | 1013.7 hPa | 0 mm | 0 m/s | 14 W/m² | - |
| 1778022775 | 20.56° C | 44% | 1013.9 hPa | 0 mm | 0 m/s | 17 W/m² | - |
| 1778022473 | 20.56° C | 45% | 1013.7 hPa | 0 mm | 0 m/s | 11 W/m² | - |
| 1778022169 | 21.11° C | 44% | 1013.8 hPa | 0 mm | 0 m/s | 22 W/m² | - |
| 1778021866 | 21.11° C | 43% | 1013.5 hPa | 0 mm | 0 m/s | 25 W/m² | - |
| 1778021563 | 21.11° C | 44% | 1013.6 hPa | 0 mm | 0 m/s | 17 W/m² | - |
| 1778021258 | 21.11° C | 45% | 1013.7 hPa | 0 mm | 0.45 m/s, 115° | 16 W/m² | - |
| 1778020956 | 21.11° C | 46% | 1013.9 hPa | 0 mm | 0 m/s | 33 W/m² | - |
| 1778020653 | 21.67° C | 45% | 1013.7 hPa | 0 mm | 0.45 m/s, 114° | 30 W/m² | - |
| 1778020349 | 21.67° C | 43% | 1013.6 hPa | 0 mm | 0 m/s | 46 W/m² | - |
| 1778020045 | 21.67° C | 41% | 1013.6 hPa | 0 mm | 0 m/s | 33 W/m² | - |
| 1778019742 | 22.22° C | 40% | 1013.8 hPa | 0 mm | 0.89 m/s, 164° | 34 W/m² | - |
| 1778019439 | 22.22° C | 40% | 1013.7 hPa | 0 mm | 0.45 m/s, 121° | 32 W/m² | - |
* Rain latest hour (hover to see other rain measurements)
** Current wind speed in m/s (hover to see current wind gust speed)